createdAt,value
2023-05-06T00:00:25.383Z,99058.80
2023-05-06T00:01:49.625Z,99058.60
2023-05-06T00:03:11.438Z,99065.70
2023-05-06T00:04:35.650Z,99059.42
2023-05-06T00:05:57.292Z,99063.93
2023-05-06T00:07:19.327Z,99063.33
2023-05-06T00:08:43.309Z,99065.74
2023-05-06T00:10:05.013Z,99067.32
2023-05-06T00:11:27.258Z,99067.13
2023-05-06T00:12:49.011Z,99064.35
2023-05-06T00:14:12.920Z,99064.92
2023-05-06T00:15:36.929Z,99065.19
2023-05-06T00:16:58.636Z,99067.50
2023-05-06T00:18:22.522Z,99064.31
2023-05-06T00:19:46.002Z,99067.33
2023-05-06T00:21:08.135Z,99067.73
2023-05-06T00:22:30.072Z,99071.29
2023-05-06T00:23:51.803Z,99069.88
2023-05-06T00:25:13.437Z,99071.33
2023-05-06T00:26:35.616Z,99069.88
2023-05-06T00:27:59.595Z,99073.75
2023-05-06T00:29:23.802Z,99075.63
2023-05-06T00:30:45.705Z,99074.85
2023-05-06T00:32:11.992Z,99079.27
2023-05-06T00:33:41.383Z,99070.74
2023-05-06T00:35:05.787Z,99070.10
2023-05-06T00:36:27.693Z,99066.54
2023-05-06T00:37:49.711Z,99065.98
2023-05-06T00:39:11.533Z,99066.32
2023-05-06T00:40:33.245Z,99066.05
2023-05-06T00:41:56.888Z,99064.45
2023-05-06T00:43:20.996Z,99063.47
2023-05-06T00:44:42.628Z,99063.48
2023-05-06T00:46:04.659Z,99059.95
2023-05-06T00:47:26.585Z,99063.27
2023-05-06T00:48:48.379Z,99060.89
2023-05-06T00:50:12.304Z,99059.89
2023-05-06T00:51:33.933Z,99062.27
2023-05-06T00:52:55.641Z,99060.42
2023-05-06T00:54:17.311Z,99061.44
2023-05-06T00:55:38.959Z,99058.42
2023-05-06T00:57:01.554Z,99056.11
2023-05-06T00:58:23.591Z,99059.17
2023-05-06T00:59:45.177Z,99057.02
2023-05-06T01:01:06.960Z,99055.17
2023-05-06T01:02:39.539Z,99056.08
2023-05-06T01:04:08.754Z,99055.67
2023-05-06T01:05:32.770Z,99056.02
2023-05-06T01:06:54.307Z,99056.70
2023-05-06T01:08:16.381Z,99059.73
2023-05-06T01:09:40.596Z,99057.36
2023-05-06T01:11:04.403Z,99056.11
2023-05-06T01:12:27.278Z,99057.15
2023-05-06T01:13:49.061Z,99055.15
2023-05-06T01:15:10.867Z,99052.98
2023-05-06T01:16:32.825Z,99052.52
2023-05-06T01:17:59.053Z,99050.53
2023-05-06T01:19:21.620Z,99051.19
2023-05-06T01:20:43.548Z,99050.35
2023-05-06T01:22:07.811Z,99052.23
2023-05-06T01:23:29.386Z,99051.69
2023-05-06T01:25:02.584Z,99046.93
2023-05-06T01:26:24.412Z,99042.98
2023-05-06T01:27:46.356Z,99043.80
2023-05-06T01:29:08.743Z,99043.59
2023-05-06T01:30:32.920Z,99044.96
2023-05-06T01:31:54.446Z,99038.80
2023-05-06T01:33:16.721Z,99039.56
2023-05-06T01:34:38.786Z,99040.70
2023-05-06T01:36:00.238Z,99041.25
2023-05-06T01:37:24.249Z,99041.59
2023-05-06T01:38:47.106Z,99041.20
2023-05-06T01:40:08.961Z,99039.31
2023-05-06T01:41:42.402Z,99040.02
2023-05-06T01:43:13.355Z,99037.27
2023-05-06T01:44:43.622Z,99039.52
2023-05-06T01:46:07.853Z,99035.26
2023-05-06T01:47:29.985Z,99033.64
2023-05-06T01:48:51.668Z,99034.62
2023-05-06T01:50:13.274Z,99031.37
2023-05-06T01:51:35.087Z,99035.23
2023-05-06T01:52:56.748Z,99029.80
2023-05-06T01:54:18.764Z,99028.38
2023-05-06T01:55:40.626Z,99024.11
2023-05-06T01:57:02.813Z,99026.16
2023-05-06T01:58:24.905Z,99027.67
2023-05-06T01:59:50.836Z,99031.45
2023-05-06T02:01:14.644Z,99031.51
2023-05-06T02:02:36.905Z,99033.36
2023-05-06T02:03:58.846Z,99029.52
2023-05-06T02:05:28.453Z,99029.27
2023-05-06T02:06:50.799Z,99034.23
2023-05-06T02:08:14.082Z,99035.11
2023-05-06T02:09:36.853Z,99034.89
2023-05-06T02:10:58.666Z,99036.60
2023-05-06T02:12:28.225Z,99032.70
2023-05-06T02:13:49.851Z,99041.06
2023-05-06T02:15:23.341Z,99041.38
2023-05-06T02:16:45.474Z,99039.11
2023-05-06T02:18:06.828Z,99039.22
2023-05-06T02:19:28.581Z,99041.13
2023-05-06T02:20:50.382Z,99041.91
2023-05-06T02:22:12.469Z,99040.27
2023-05-06T02:23:41.747Z,99039.00
2023-05-06T02:25:03.933Z,99042.23
2023-05-06T02:26:28.113Z,99040.34
2023-05-06T02:27:50.045Z,99043.13
2023-05-06T02:29:13.819Z,99042.92
2023-05-06T02:30:37.967Z,99042.39
2023-05-06T02:31:59.277Z,99041.70
2023-05-06T02:33:21.781Z,99036.03
2023-05-06T02:34:43.516Z,99039.78
2023-05-06T02:36:05.061Z,99031.40
2023-05-06T02:37:26.797Z,99030.96
2023-05-06T02:38:51.051Z,99025.94
2023-05-06T02:40:13.027Z,99026.55
2023-05-06T02:41:37.336Z,99024.23
2023-05-06T02:43:06.136Z,99020.70
2023-05-06T02:44:29.023Z,99026.73
2023-05-06T02:45:52.407Z,99026.60
2023-05-06T02:47:16.351Z,99025.68
2023-05-06T02:48:39.412Z,99029.18
2023-05-06T02:50:00.997Z,99030.83
2023-05-06T02:51:22.659Z,99029.55
2023-05-06T02:52:44.775Z,99030.27
2023-05-06T02:54:06.993Z,99024.60
2023-05-06T02:55:36.312Z,99023.11
2023-05-06T02:56:58.222Z,99025.20
2023-05-06T02:58:22.634Z,99023.29
2023-05-06T02:59:47.048Z,99021.64
2023-05-06T03:01:08.719Z,99024.77
2023-05-06T03:02:30.826Z,99019.30
2023-05-06T03:03:54.683Z,99023.45
2023-05-06T03:05:16.422Z,99020.16
2023-05-06T03:06:47.593Z,99017.06
2023-05-06T03:08:11.787Z,99020.19
2023-05-06T03:09:34.040Z,99017.39
2023-05-06T03:10:56.143Z,99016.05
2023-05-06T03:12:20.472Z,99014.47
2023-05-06T03:13:42.320Z,99011.65
2023-05-06T03:15:03.746Z,99010.85
2023-05-06T03:16:26.452Z,99007.83
2023-05-06T03:17:51.939Z,99000.58
2023-05-06T03:19:13.815Z,99001.33
2023-05-06T03:20:38.691Z,99003.16
2023-05-06T03:22:02.898Z,98999.20
2023-05-06T03:23:26.050Z,99002.47
2023-05-06T03:24:48.327Z,98995.58
2023-05-06T03:26:09.481Z,98991.42
2023-05-06T03:27:31.522Z,98995.75
2023-05-06T03:28:55.527Z,98992.59
2023-05-06T03:30:17.800Z,98988.58
2023-05-06T03:31:41.948Z,98987.48
2023-05-06T03:33:03.943Z,98987.59
2023-05-06T03:34:27.116Z,98987.83
2023-05-06T03:35:48.869Z,98988.94
2023-05-06T03:37:12.589Z,98985.35
2023-05-06T03:38:35.740Z,98983.81
2023-05-06T03:39:58.644Z,98990.48
2023-05-06T03:41:23.269Z,98984.58
2023-05-06T03:42:45.338Z,98986.63
2023-05-06T03:44:07.244Z,98989.44
2023-05-06T03:45:28.994Z,98989.11
2023-05-06T03:46:50.852Z,98990.30
2023-05-06T03:48:15.507Z,98988.71
2023-05-06T03:49:37.750Z,98985.19
2023-05-06T03:51:01.826Z,98990.20
2023-05-06T03:52:35.788Z,98992.00
2023-05-06T03:53:57.577Z,98994.08
2023-05-06T03:55:19.326Z,98995.98
2023-05-06T03:56:43.248Z,99000.88
2023-05-06T03:58:04.757Z,98999.38
2023-05-06T03:59:26.644Z,99002.26
2023-05-06T04:00:48.595Z,99004.11
2023-05-06T04:02:12.720Z,98999.80
2023-05-06T04:03:35.461Z,98998.36
2023-05-06T04:04:56.985Z,98995.75
2023-05-06T04:06:18.551Z,98990.16
2023-05-06T04:07:40.469Z,98994.29
2023-05-06T04:09:01.985Z,98997.38
2023-05-06T04:10:26.068Z,98996.77
2023-05-06T04:12:00.194Z,99001.19
2023-05-06T04:13:42.140Z,99001.14
2023-05-06T04:15:08.193Z,99004.63
2023-05-06T04:16:30.266Z,99005.11
2023-05-06T04:17:51.887Z,99011.10
2023-05-06T04:19:13.482Z,99004.58
2023-05-06T04:20:35.715Z,99009.40
2023-05-06T04:21:58.427Z,99005.65
2023-05-06T04:23:23.175Z,99003.41
2023-05-06T04:24:45.671Z,98996.21
2023-05-06T04:26:08.727Z,98997.85
2023-05-06T04:27:33.786Z,98994.53
2023-05-06T04:28:55.812Z,98995.77
2023-05-06T04:30:17.724Z,98994.80
2023-05-06T04:31:40.044Z,98995.80
2023-05-06T04:33:03.972Z,98993.41
2023-05-06T04:34:27.686Z,98992.34
2023-05-06T04:35:49.937Z,98993.94
2023-05-06T04:37:13.669Z,98995.56
2023-05-06T04:38:42.698Z,98996.30
2023-05-06T04:40:05.659Z,98996.11
2023-05-06T04:41:31.333Z,98989.55
2023-05-06T04:43:00.503Z,98985.72
2023-05-06T04:44:24.576Z,98986.48
2023-05-06T04:45:49.601Z,98984.17
2023-05-06T04:47:14.513Z,98988.36
2023-05-06T04:48:39.114Z,98989.63
2023-05-06T04:50:01.248Z,98991.06
2023-05-06T04:51:23.117Z,98991.25
2023-05-06T04:52:44.789Z,98990.65
2023-05-06T04:54:07.289Z,98988.25
2023-05-06T04:55:30.212Z,98984.31
2023-05-06T04:56:51.718Z,98980.48
2023-05-06T04:58:14.442Z,98979.63
2023-05-06T04:59:36.484Z,98977.89
2023-05-06T05:00:58.390Z,98984.42
2023-05-06T05:02:19.960Z,98980.48
2023-05-06T05:03:51.937Z,98983.53
2023-05-06T05:05:14.441Z,98986.81
2023-05-06T05:06:39.334Z,98983.62
2023-05-06T05:08:03.562Z,98986.64
2023-05-06T05:09:25.996Z,98985.36
2023-05-06T05:10:48.269Z,98981.70
2023-05-06T05:12:12.865Z,98984.03
2023-05-06T05:13:36.891Z,98977.27
2023-05-06T05:14:59.342Z,98973.75
2023-05-06T05:16:21.157Z,98976.75
2023-05-06T05:17:43.777Z,98978.01
2023-05-06T05:19:09.257Z,98979.79
2023-05-06T05:20:39.131Z,98973.77
2023-05-06T05:22:02.308Z,98976.40
2023-05-06T05:23:28.284Z,98972.30
2023-05-06T05:25:07.493Z,98968.21
2023-05-06T05:26:32.423Z,98962.23
2023-05-06T05:27:54.327Z,98960.69
2023-05-06T05:29:18.175Z,98955.54
2023-05-06T05:30:40.180Z,98958.33
2023-05-06T05:32:02.815Z,98954.33
2023-05-06T05:33:24.564Z,98951.59
2023-05-06T05:34:48.923Z,98952.41
2023-05-06T05:36:12.407Z,98951.56
2023-05-06T05:37:34.520Z,98954.25
2023-05-06T05:38:58.450Z,98952.44
2023-05-06T05:40:21.012Z,98953.72
2023-05-06T05:41:48.548Z,98953.13
2023-05-06T05:43:10.537Z,98947.86
2023-05-06T05:44:35.648Z,98949.55
2023-05-06T05:45:57.125Z,98946.64
2023-05-06T05:47:19.058Z,98953.27
2023-05-06T05:48:41.301Z,98954.14
2023-05-06T05:50:03.836Z,98955.01
2023-05-06T05:51:25.384Z,98954.04
2023-05-06T05:52:50.130Z,98957.06
2023-05-06T05:54:15.596Z,98950.03
2023-05-06T05:55:40.332Z,98953.66
2023-05-06T05:57:02.424Z,98948.45
2023-05-06T05:58:25.225Z,98951.52
2023-05-06T05:59:48.113Z,98946.01
2023-05-06T06:01:10.248Z,98942.33
2023-05-06T06:02:34.326Z,98934.89
2023-05-06T06:03:58.605Z,98936.88
2023-05-06T06:05:23.396Z,98934.02
2023-05-06T06:06:46.366Z,98930.59
2023-05-06T06:08:08.589Z,98930.92
2023-05-06T06:09:30.673Z,98928.77
2023-05-06T06:11:06.374Z,98928.08
2023-05-06T06:12:37.423Z,98925.59
2023-05-06T06:13:59.069Z,98923.55
2023-05-06T06:15:21.035Z,98923.09
2023-05-06T06:16:52.361Z,98926.01
2023-05-06T06:18:16.740Z,98925.06
2023-05-06T06:19:41.164Z,98927.73
2023-05-06T06:21:02.831Z,98926.02
2023-05-06T06:22:36.357Z,98930.36
2023-05-06T06:23:58.485Z,98927.39
2023-05-06T06:25:22.495Z,98921.98
2023-05-06T06:26:53.697Z,98921.64
2023-05-06T06:28:15.294Z,98923.00
2023-05-06T06:29:39.534Z,98922.92
2023-05-06T06:31:03.225Z,98917.44
2023-05-06T06:32:36.502Z,98917.73
2023-05-06T06:34:12.489Z,98919.08
2023-05-06T06:35:53.145Z,98915.75
2023-05-06T06:37:17.625Z,98911.19
2023-05-06T06:38:40.133Z,98909.94
2023-05-06T06:40:04.423Z,98913.53
2023-05-06T06:41:28.125Z,98916.23
2023-05-06T06:42:50.276Z,98916.45
2023-05-06T06:45:10.602Z,98914.06
2023-05-06T06:46:35.358Z,98907.17
2023-05-06T06:47:57.946Z,98910.73
2023-05-06T06:49:19.733Z,98913.88
2023-05-06T06:50:41.449Z,98914.76
2023-05-06T06:52:10.400Z,98907.04
2023-05-06T06:54:05.035Z,98910.39
2023-05-06T06:55:34.129Z,98898.91
2023-05-06T06:56:58.603Z,98908.28
2023-05-06T06:58:22.389Z,98912.48
2023-05-06T06:59:51.810Z,98917.05
2023-05-06T07:01:20.757Z,98915.23
2023-05-06T07:02:42.629Z,98916.86
2023-05-06T07:04:05.380Z,98912.58
2023-05-06T07:05:28.622Z,98912.12
2023-05-06T07:06:52.751Z,98911.82
2023-05-06T07:08:22.261Z,98909.99
2023-05-06T07:09:57.866Z,98912.77
2023-05-06T07:11:26.447Z,98911.84
2023-05-06T07:12:50.826Z,98912.63
2023-05-06T07:14:12.692Z,98914.41
2023-05-06T07:15:41.999Z,98921.42
2023-05-06T07:17:03.870Z,98919.76
2023-05-06T07:18:25.590Z,98917.34
2023-05-06T07:19:49.778Z,98914.43
2023-05-06T07:21:14.225Z,98912.11
2023-05-06T07:22:36.244Z,98918.44
2023-05-06T07:23:57.591Z,98912.24
2023-05-06T07:25:21.632Z,98912.48
2023-05-06T07:26:46.144Z,98909.30
2023-05-06T07:28:19.282Z,98905.23
2023-05-06T07:29:41.217Z,98905.61
2023-05-06T07:31:13.572Z,98904.84
2023-05-06T07:32:43.495Z,98908.81
2023-05-06T07:34:18.956Z,98907.00
2023-05-06T07:35:48.579Z,98911.60
2023-05-06T07:37:14.895Z,98916.27
2023-05-06T07:38:44.481Z,98913.45
2023-05-06T07:40:06.445Z,98916.37
2023-05-06T07:41:28.420Z,98917.52
2023-05-06T07:42:53.012Z,98916.90
2023-05-06T07:44:14.916Z,98917.88
2023-05-06T07:45:41.624Z,98918.44
2023-05-06T07:47:17.023Z,98919.98
2023-05-06T07:48:40.894Z,98923.72
2023-05-06T07:50:14.129Z,98927.71
2023-05-06T07:51:36.463Z,98924.81
2023-05-06T07:52:58.234Z,98922.27
2023-05-06T07:54:20.106Z,98919.67
2023-05-06T07:55:55.524Z,98915.49
2023-05-06T07:57:19.391Z,98919.63
2023-05-06T07:58:41.482Z,98916.30
2023-05-06T08:00:03.010Z,98916.14
2023-05-06T08:01:34.745Z,98918.16
2023-05-06T08:03:01.012Z,98918.20
2023-05-06T08:04:23.368Z,98916.19
2023-05-06T08:05:47.517Z,98913.13
2023-05-06T08:07:11.979Z,98915.41
2023-05-06T08:08:33.897Z,98911.06
2023-05-06T08:09:57.066Z,98914.05
2023-05-06T08:11:19.446Z,98913.31
2023-05-06T08:12:42.168Z,98921.34
2023-05-06T08:14:13.401Z,98913.45
2023-05-06T08:15:35.619Z,98908.40
2023-05-06T08:16:57.249Z,98917.63
2023-05-06T08:18:26.613Z,98914.34
2023-05-06T08:19:56.242Z,98912.39
2023-05-06T08:21:17.925Z,98915.30
2023-05-06T08:22:39.589Z,98913.97
2023-05-06T08:24:01.023Z,98912.05
2023-05-06T08:25:23.015Z,98912.52
2023-05-06T08:26:46.987Z,98911.30
2023-05-06T08:28:11.141Z,98912.25
2023-05-06T08:29:40.762Z,98913.16
2023-05-06T08:33:00.599Z,98916.00
2023-05-06T08:34:22.305Z,98909.70
2023-05-06T08:35:46.825Z,98909.73
2023-05-06T08:37:19.921Z,98906.03
2023-05-06T08:38:50.992Z,98902.85
2023-05-06T08:40:24.554Z,98903.23
2023-05-06T08:41:48.865Z,98905.02
2023-05-06T08:43:13.134Z,98904.48
2023-05-06T08:44:37.505Z,98886.66
2023-05-06T08:46:01.813Z,98906.95
2023-05-06T08:47:26.284Z,98896.02
2023-05-06T08:48:50.711Z,98905.90
2023-05-06T08:50:35.502Z,98906.42
2023-05-06T08:52:19.890Z,98901.99
2023-05-06T08:53:41.465Z,98902.10
2023-05-06T08:55:04.972Z,98903.20
2023-05-06T08:56:28.688Z,98902.44
2023-05-06T08:57:53.315Z,98904.92
2023-05-06T08:59:15.242Z,98894.97
2023-05-06T09:00:37.064Z,98904.39
2023-05-06T09:01:59.006Z,98901.45
2023-05-06T09:03:20.834Z,98904.60
2023-05-06T09:04:42.801Z,98906.91
2023-05-06T09:06:04.355Z,98895.81
2023-05-06T09:07:26.239Z,98908.09
2023-05-06T09:08:50.461Z,98904.45
2023-05-06T09:10:19.821Z,98905.13
2023-05-06T09:11:42.377Z,98904.52
2023-05-06T09:13:08.756Z,98908.11
2023-05-06T09:14:32.715Z,98907.66
2023-05-06T09:15:56.886Z,98908.14
2023-05-06T09:17:24.528Z,98908.11
2023-05-06T09:19:00.843Z,98905.75
2023-05-06T09:20:25.234Z,98911.16
2023-05-06T09:21:46.914Z,98911.36
2023-05-06T09:23:09.420Z,98907.30
2023-05-06T09:24:31.098Z,98909.71
2023-05-06T09:26:00.062Z,98909.77
2023-05-06T09:27:21.712Z,98900.98
2023-05-06T09:28:43.986Z,98895.52
2023-05-06T09:30:05.786Z,98893.55
2023-05-06T09:31:29.985Z,98887.50
2023-05-06T09:33:13.322Z,98881.58
2023-05-06T09:34:47.281Z,98878.69
2023-05-06T09:36:16.282Z,98881.98
2023-05-06T09:37:45.507Z,98882.21
2023-05-06T09:39:10.208Z,98880.77
2023-05-06T09:40:31.981Z,98876.41
2023-05-06T09:41:55.686Z,98880.42
2023-05-06T09:43:17.504Z,98882.16
2023-05-06T09:44:39.292Z,98881.55
2023-05-06T09:46:02.018Z,98878.30
2023-05-06T09:47:23.833Z,98872.23
2023-05-06T09:48:45.429Z,98867.57
2023-05-06T09:50:09.875Z,98859.13
2023-05-06T09:51:32.718Z,98853.45
2023-05-06T09:52:54.308Z,98845.10
2023-05-06T09:54:16.216Z,98848.70
2023-05-06T09:55:37.846Z,98842.61
2023-05-06T09:57:00.945Z,98846.48
2023-05-06T09:58:23.682Z,98852.51
2023-05-06T09:59:45.680Z,98853.83
2023-05-06T10:01:07.846Z,98856.05
2023-05-06T10:02:29.705Z,98856.42
2023-05-06T10:04:03.443Z,98852.27
2023-05-06T10:05:32.922Z,98851.52
2023-05-06T10:06:54.400Z,98850.17
2023-05-06T10:08:18.564Z,98857.08
2023-05-06T10:09:40.820Z,98851.86
2023-05-06T10:11:02.871Z,98853.05
2023-05-06T10:12:24.618Z,98857.96
2023-05-06T10:13:46.964Z,98859.84
2023-05-06T10:15:11.560Z,98861.05
2023-05-06T10:16:33.408Z,98855.62
2023-05-06T10:17:54.952Z,98859.15
2023-05-06T10:19:16.576Z,98857.39
2023-05-06T10:20:38.538Z,98855.70
2023-05-06T10:22:04.504Z,98856.02
2023-05-06T10:23:27.619Z,98852.83
2023-05-06T10:24:49.684Z,98853.73
2023-05-06T10:26:15.870Z,98859.24
2023-05-06T10:27:40.457Z,98852.36
2023-05-06T10:29:04.542Z,98855.11
2023-05-06T10:30:28.468Z,98854.12
2023-05-06T10:31:50.759Z,98854.84
2023-05-06T10:33:12.872Z,98856.10
2023-05-06T10:34:37.162Z,98859.70
2023-05-06T10:35:58.818Z,98855.90
2023-05-06T10:37:20.848Z,98848.04
2023-05-06T10:38:47.331Z,98850.41
2023-05-06T10:40:18.609Z,98839.42
2023-05-06T10:41:40.851Z,98853.04
2023-05-06T10:43:17.296Z,98849.56
2023-05-06T10:44:41.555Z,98839.98
2023-05-06T10:46:10.808Z,98839.90
2023-05-06T10:47:34.890Z,98840.39
2023-05-06T10:49:11.637Z,98843.33
2023-05-06T10:50:37.580Z,98842.21
2023-05-06T10:52:01.511Z,98851.16
2023-05-06T10:53:39.503Z,98846.75
2023-05-06T10:55:01.112Z,98850.36
2023-05-06T10:56:25.310Z,98843.50
2023-05-06T10:57:49.882Z,98834.10
2023-05-06T10:59:21.003Z,98847.48
2023-05-06T11:00:42.925Z,98849.08
2023-05-06T11:02:07.674Z,98850.20
2023-05-06T11:03:29.716Z,98848.89
2023-05-06T11:04:54.267Z,98847.17
2023-05-06T11:06:16.139Z,98844.48
2023-05-06T11:07:37.818Z,98843.95
2023-05-06T11:09:01.800Z,98837.42
2023-05-06T11:10:23.529Z,98831.70
2023-05-06T11:11:47.810Z,98836.35
2023-05-06T11:13:09.605Z,98833.33
2023-05-06T11:14:31.907Z,98836.51
2023-05-06T11:16:02.924Z,98835.02
2023-05-06T11:17:24.753Z,98830.98
2023-05-06T11:18:46.250Z,98828.33
2023-05-06T11:20:10.521Z,98829.74
2023-05-06T11:21:32.466Z,98831.88
2023-05-06T11:22:54.354Z,98831.31
2023-05-06T11:24:16.123Z,98834.85
2023-05-06T11:25:57.016Z,98832.76
2023-05-06T11:27:21.179Z,98831.16
2023-05-06T11:28:47.871Z,98829.16
2023-05-06T11:30:09.638Z,98822.30
2023-05-06T11:31:32.009Z,98818.16
2023-05-06T11:32:53.927Z,98817.52
2023-05-06T11:34:17.981Z,98818.90
2023-05-06T11:35:44.474Z,98816.52
2023-05-06T11:37:05.818Z,98824.70
2023-05-06T11:38:29.440Z,98824.23
2023-05-06T11:39:51.587Z,98829.88
2023-05-06T11:41:13.395Z,98829.28
2023-05-06T11:42:35.080Z,98833.12
2023-05-06T11:43:56.782Z,98836.63
2023-05-06T11:45:27.877Z,98833.52
2023-05-06T11:46:50.069Z,98829.23
2023-05-06T11:48:13.826Z,98829.27
2023-05-06T11:49:36.879Z,98823.84
2023-05-06T11:51:01.037Z,98826.42
2023-05-06T11:52:22.740Z,98822.64
2023-05-06T11:53:44.913Z,98823.20
2023-05-06T11:55:06.863Z,98820.72
2023-05-06T11:56:28.467Z,98817.69
2023-05-06T11:57:50.241Z,98814.02
2023-05-06T11:59:12.158Z,98819.89
2023-05-06T12:00:33.859Z,98815.98
2023-05-06T12:01:55.846Z,98814.02
2023-05-06T12:03:17.720Z,98819.86
2023-05-06T12:04:53.469Z,98815.15
2023-05-06T12:06:19.082Z,98815.21
2023-05-06T12:07:48.519Z,98814.42
2023-05-06T12:09:17.218Z,98817.80
2023-05-06T12:10:41.777Z,98811.50
2023-05-06T12:12:05.577Z,98811.36
2023-05-06T12:13:29.405Z,98811.61
2023-05-06T12:14:53.858Z,98797.27
2023-05-06T12:16:23.022Z,98810.67
2023-05-06T12:17:45.240Z,98808.87
2023-05-06T12:19:09.466Z,98816.34
2023-05-06T12:20:33.510Z,98816.98
2023-05-06T12:21:55.751Z,98816.84
2023-05-06T12:23:19.988Z,98813.81
2023-05-06T12:24:41.788Z,98820.45
2023-05-06T12:26:03.877Z,98816.19
2023-05-06T12:27:25.636Z,98812.95
2023-05-06T12:28:47.437Z,98813.68
2023-05-06T12:30:18.796Z,98804.55
2023-05-06T12:31:52.076Z,98808.48
2023-05-06T12:33:25.973Z,98806.82
2023-05-06T12:34:47.745Z,98817.81
2023-05-06T12:36:32.809Z,98821.20
2023-05-06T12:38:01.903Z,98826.08
2023-05-06T12:39:28.062Z,98828.98
2023-05-06T12:40:57.235Z,98831.02
2023-05-06T12:42:30.584Z,98835.52
2023-05-06T12:44:03.843Z,98834.46
2023-05-06T12:45:50.501Z,98831.63
2023-05-06T12:47:35.607Z,98827.67
2023-05-06T12:48:59.905Z,98826.77
2023-05-06T12:50:35.604Z,98828.09
2023-05-06T12:52:16.504Z,98825.55
2023-05-06T12:53:41.860Z,98825.31
2023-05-06T12:55:26.941Z,98821.52
2023-05-06T12:57:02.291Z,98814.96
2023-05-06T12:58:37.433Z,98811.48
2023-05-06T13:00:22.360Z,98807.70
2023-05-06T13:01:51.355Z,98800.86
2023-05-06T13:03:13.303Z,98798.73
2023-05-06T13:04:49.985Z,98799.66
2023-05-06T13:06:25.829Z,98799.98
2023-05-06T13:07:49.990Z,98795.87
2023-05-06T13:09:12.660Z,98793.55
2023-05-06T13:10:50.296Z,98792.66
2023-05-06T13:12:12.067Z,98798.50
2023-05-06T13:13:59.380Z,98793.85
2023-05-06T13:15:34.900Z,98796.40
2023-05-06T13:17:19.834Z,98797.46
2023-05-06T13:18:46.716Z,98792.34
2023-05-06T13:20:19.935Z,98792.58
2023-05-06T13:21:44.207Z,98791.39
2023-05-06T13:23:29.578Z,98794.27
2023-05-06T13:24:51.752Z,98792.80
2023-05-06T13:26:36.601Z,98790.86
2023-05-06T13:28:09.969Z,98795.92
2023-05-06T13:29:43.429Z,98796.24
2023-05-06T13:31:28.332Z,98797.41
2023-05-06T13:33:09.308Z,98793.00
2023-05-06T13:34:42.523Z,98796.42
2023-05-06T13:36:15.854Z,98796.20
2023-05-06T13:38:10.306Z,98798.16
2023-05-06T13:41:31.867Z,98791.02
2023-05-06T13:42:55.431Z,98778.93
2023-05-06T13:44:17.292Z,98786.71
2023-05-06T13:45:53.350Z,98786.13
2023-05-06T13:47:17.698Z,98784.17
2023-05-06T13:48:41.787Z,98784.44
2023-05-06T13:50:05.635Z,98776.02
2023-05-06T13:51:34.659Z,98779.63
2023-05-06T13:53:08.203Z,98774.11
2023-05-06T13:54:29.943Z,98777.76
2023-05-06T13:56:13.843Z,98775.06
2023-05-06T13:57:37.837Z,98755.80
2023-05-06T13:58:59.357Z,98766.48
2023-05-06T14:00:30.455Z,98766.41
2023-05-06T14:01:59.759Z,98764.99
2023-05-06T14:03:21.410Z,98763.02
2023-05-06T14:05:06.653Z,98758.70
2023-05-06T14:06:31.076Z,98759.15
2023-05-06T14:08:03.157Z,98760.80
2023-05-06T14:09:27.609Z,98758.30
2023-05-06T14:11:03.234Z,98751.43
2023-05-06T14:12:40.159Z,98749.11
2023-05-06T14:14:04.313Z,98744.75
2023-05-06T14:15:39.869Z,98738.64
2023-05-06T14:17:25.355Z,98731.50
2023-05-06T14:18:50.394Z,98734.21
2023-05-06T14:20:26.341Z,98738.65
2023-05-06T14:22:05.828Z,98739.82
2023-05-06T14:23:27.416Z,98744.18
2023-05-06T14:25:12.476Z,98750.48
2023-05-06T14:26:39.030Z,98752.84
2023-05-06T14:28:10.415Z,98747.75
2023-05-06T14:29:55.302Z,98744.70
2023-05-06T14:31:17.093Z,98747.36
2023-05-06T14:32:51.777Z,98739.66
2023-05-06T14:34:43.084Z,98742.00
2023-05-06T14:36:04.703Z,98748.61
2023-05-06T14:37:38.539Z,98745.73
2023-05-06T14:39:00.414Z,98743.65
2023-05-06T14:40:41.612Z,98744.94
2023-05-06T14:42:10.745Z,98745.98
2023-05-06T14:43:39.990Z,98748.62
2023-05-06T14:45:25.410Z,98747.77
2023-05-06T14:46:58.904Z,98753.73
2023-05-06T14:48:43.845Z,98752.92
2023-05-06T14:50:10.608Z,98759.55
2023-05-06T14:51:56.055Z,98759.44
2023-05-06T14:53:41.004Z,98760.22
2023-05-06T14:55:10.128Z,98761.94
2023-05-06T14:56:46.793Z,98761.92
2023-05-06T14:58:41.381Z,98763.35
2023-05-06T15:00:13.582Z,98768.27
2023-05-06T15:01:47.197Z,98774.11
2023-05-06T15:03:20.630Z,98772.41
2023-05-06T15:05:03.741Z,98776.79
2023-05-06T15:06:28.298Z,98774.45
2023-05-06T15:08:10.428Z,98779.61
2023-05-06T15:09:51.997Z,98787.52
2023-05-06T15:11:46.338Z,98790.27
2023-05-06T15:13:15.748Z,98789.56
2023-05-06T15:15:06.364Z,98795.75
2023-05-06T15:16:32.871Z,98804.83
2023-05-06T15:17:55.051Z,98802.99
2023-05-06T15:19:40.226Z,98804.89
2023-05-06T15:21:14.050Z,98806.47
2023-05-06T15:22:47.523Z,98818.33
2023-05-06T15:24:29.823Z,98816.19
2023-05-06T15:26:10.637Z,98802.70
2023-05-06T15:27:48.355Z,98820.57
2023-05-06T15:29:43.320Z,98827.65
2023-05-06T15:31:24.086Z,98822.20
2023-05-06T15:33:08.881Z,98825.55
2023-05-06T15:34:55.986Z,98823.58
2023-05-06T15:36:27.321Z,98826.56
2023-05-06T15:38:12.522Z,98829.20
2023-05-06T15:39:57.616Z,98830.58
2023-05-06T15:41:27.216Z,98833.80
2023-05-06T15:43:15.664Z,98835.14
2023-05-06T15:44:54.993Z,98836.68
2023-05-06T15:46:35.817Z,98836.33
2023-05-06T15:48:08.805Z,98835.61
2023-05-06T15:51:18.547Z,98823.12
2023-05-06T15:52:43.405Z,98825.41
2023-05-06T15:54:18.828Z,98825.49
2023-05-06T15:56:18.106Z,98824.49
2023-05-06T15:58:01.308Z,98820.73
2023-05-06T15:59:39.202Z,98820.88
2023-05-06T16:01:12.550Z,98819.83
2023-05-06T16:02:55.501Z,98814.05
2023-05-06T16:06:48.126Z,98821.29
2023-05-06T16:10:39.737Z,98829.73
2023-05-06T16:12:20.355Z,98830.44
2023-05-06T16:13:56.830Z,98823.71
2023-05-06T16:15:32.755Z,98832.29
2023-05-06T16:17:17.813Z,98831.27
2023-05-06T16:18:53.505Z,98832.77
2023-05-06T16:20:29.557Z,98830.78
2023-05-06T16:21:54.409Z,98829.16
2023-05-06T16:23:48.317Z,98831.41
2023-05-06T16:25:43.310Z,98827.04
2023-05-06T16:27:24.436Z,98829.65
2023-05-06T16:29:09.192Z,98831.52
2023-05-06T16:31:03.286Z,98828.52
2023-05-06T16:32:45.354Z,98832.77
2023-05-06T16:34:30.333Z,98833.48
2023-05-06T16:36:15.278Z,98837.76
2023-05-06T16:38:09.318Z,98833.12
2023-05-06T16:39:52.464Z,98830.93
2023-05-06T16:41:25.793Z,98827.09
2023-05-06T16:43:10.296Z,98826.15
2023-05-06T16:44:55.678Z,98826.46
2023-05-06T16:46:29.210Z,98826.51
2023-05-06T16:48:14.373Z,98829.73
2023-05-06T16:49:48.109Z,98827.30
2023-05-06T16:51:33.142Z,98818.64
2023-05-06T16:53:08.429Z,98821.48
2023-05-06T16:54:40.458Z,98821.63
2023-05-06T16:56:21.043Z,98826.87
2023-05-06T16:58:15.314Z,98829.26
2023-05-06T17:02:01.112Z,98838.34
2023-05-06T17:03:55.317Z,98836.51
2023-05-06T17:05:42.342Z,98842.77
2023-05-06T17:07:11.804Z,98845.91
2023-05-06T17:08:45.406Z,98846.91
2023-05-06T17:10:30.096Z,98848.02
2023-05-06T17:12:10.215Z,98848.23
2023-05-06T17:13:55.091Z,98854.91
2023-05-06T17:15:23.901Z,98855.28
2023-05-06T17:17:08.701Z,98859.70
2023-05-06T17:18:50.657Z,98860.77